Time;durP1;ratioP1;P1;durP2;ratioP2;P2;SDS_P1;SDS_P2;PMS_P1;PMS_P2;Temp;Humidity;BMP_temperature;BMP_pressure;BME280_temperature;BME280_humidity;BME280_pressure;Samples;Min_cycle;Max_cycle;Signal;HPM_P1;HPM_P2
2023/04/07 00:00:57;;;;;;;11.65;9.43;;;5.70;99.90;;;;;;4968316;28;20989;-71
2023/04/07 00:03:23;;;;;;;10.20;8.98;;;5.70;99.90;;;;;;4955282;28;20684;-68
2023/04/07 00:05:49;;;;;;;11.60;9.70;;;5.70;99.90;;;;;;4952168;28;20035;-71
2023/04/07 00:08:15;;;;;;;12.93;9.60;;;5.60;99.90;;;;;;4968202;28;20788;-72
2023/04/07 00:10:40;;;;;;;12.18;9.25;;;5.70;99.90;;;;;;4967788;28;20195;-72
2023/04/07 00:13:06;;;;;;;11.60;8.75;;;5.70;99.90;;;;;;4965092;28;20049;-72
2023/04/07 00:15:32;;;;;;;12.30;9.60;;;5.70;99.90;;;;;;4972690;28;20145;-72
2023/04/07 00:17:57;;;;;;;11.25;9.98;;;5.60;99.90;;;;;;4971835;28;20050;-72
2023/04/07 00:20:23;;;;;;;12.32;10.30;;;5.60;99.90;;;;;;4968001;28;20749;-72
2023/04/07 00:22:49;;;;;;;13.57;9.20;;;5.60;99.90;;;;;;4968823;28;20030;-71
2023/04/07 00:25:15;;;;;;;13.88;10.45;;;5.60;99.90;;;;;;4963494;28;20042;-72
2023/04/07 00:27:40;;;;;;;12.90;10.82;;;5.60;99.90;;;;;;4967134;28;20050;-71
2023/04/07 00:30:07;;;;;;;10.90;9.35;;;5.60;99.90;;;;;;4967225;28;20049;-71
2023/04/07 00:32:32;;;;;;;12.68;10.52;;;5.60;99.90;;;;;;4952514;28;20034;-71
2023/04/07 00:34:58;;;;;;;10.85;9.75;;;5.60;99.90;;;;;;4967895;28;20038;-65
2023/04/07 00:37:26;;;;;;;11.07;9.70;;;5.50;99.90;;;;;;4968613;28;20042;-72
2023/04/07 00:39:52;;;;;;;12.23;9.85;;;5.50;99.90;;;;;;4961125;28;20042;-72
2023/04/07 00:42:18;;;;;;;12.85;9.55;;;5.50;99.90;;;;;;4957004;28;20041;-72
2023/04/07 00:44:44;;;;;;;12.13;9.77;;;5.60;99.90;;;;;;4964713;28;20558;-72
2023/04/07 00:47:10;;;;;;;10.75;9.32;;;5.60;99.90;;;;;;4981377;28;20046;-72
2023/04/07 00:49:37;;;;;;;13.75;10.10;;;5.70;99.90;;;;;;4960915;28;20276;-72
2023/04/07 00:52:05;;;;;;;12.60;10.07;;;5.70;99.90;;;;;;4964903;28;20421;-72
2023/04/07 00:54:30;;;;;;;13.30;10.68;;;5.70;99.90;;;;;;4967302;28;20157;-65
2023/04/07 00:56:56;;;;;;;10.85;9.27;;;5.70;99.90;;;;;;4961432;28;20435;-65
2023/04/07 00:59:22;;;;;;;15.38;10.57;;;5.70;99.90;;;;;;4961705;28;21588;-65
2023/04/07 01:02:13;;;;;;;12.50;9.93;;;5.70;99.90;;;;;;4964596;28;20043;-66
2023/04/07 01:04:43;;;;;;;14.63;10.15;;;5.60;99.90;;;;;;4965056;28;20051;-65
2023/04/07 01:07:14;;;;;;;13.43;10.68;;;5.60;99.90;;;;;;4965998;28;20042;-65
2023/04/07 01:09:46;;;;;;;12.70;9.82;;;5.60;99.90;;;;;;4959566;28;20102;-66
2023/04/07 01:12:33;;;;;;;11.77;10.15;;;5.60;99.90;;;;;;4961520;28;20086;-65
2023/04/07 01:15:11;;;;;;;12.57;10.05;;;5.70;99.90;;;;;;4963244;28;20038;-72
2023/04/07 01:17:44;;;;;;;12.02;10.00;;;5.60;99.90;;;;;;4963844;28;20042;-71
2023/04/07 01:20:16;;;;;;;15.63;10.73;;;5.50;99.90;;;;;;4967582;28;20050;-72
2023/04/07 01:22:46;;;;;;;14.02;10.70;;;5.60;99.90;;;;;;4966715;28;20039;-72
2023/04/07 01:25:30;;;;;;;12.55;10.18;;;5.60;99.90;;;;;;4963509;28;20174;-72
2023/04/07 01:28:04;;;;;;;12.60;10.43;;;5.60;99.90;;;;;;4967101;28;20574;-71
2023/04/07 01:30:33;;;;;;;11.68;9.95;;;5.60;99.90;;;;;;4961037;28;20080;-71
2023/04/07 01:33:01;;;;;;;11.93;9.73;;;5.60;99.90;;;;;;4967253;28;20052;-65
2023/04/07 01:35:32;;;;;;;11.65;10.32;;;5.60;99.90;;;;;;4953273;28;20149;-72
2023/04/07 01:37:59;;;;;;;12.37;10.93;;;5.60;99.90;;;;;;4963908;28;20034;-72
2023/04/07 01:40:25;;;;;;;12.93;10.60;;;5.50;99.90;;;;;;4967787;28;20326;-71
2023/04/07 01:42:53;;;;;;;11.23;10.13;;;5.50;99.90;;;;;;4968683;28;21722;-72
2023/04/07 01:45:20;;;;;;;12.63;10.57;;;5.50;99.90;;;;;;4970839;28;20596;-72
2023/04/07 01:47:46;;;;;;;11.30;9.85;;;5.50;99.90;;;;;;4964817;28;20042;-72
2023/04/07 01:50:12;;;;;;;13.35;10.05;;;5.50;99.90;;;;;;4970672;28;20078;-72
2023/04/07 01:52:39;;;;;;;11.00;9.82;;;5.50;99.90;;;;;;4969047;28;20049;-72
2023/04/07 01:55:05;;;;;;;12.55;10.27;;;5.60;99.90;;;;;;4967656;28;20045;-72
2023/04/07 01:57:31;;;;;;;13.18;10.88;;;5.60;99.90;;;;;;4966698;28;20541;-72
2023/04/07 01:59:57;;;;;;;15.50;10.98;;;5.50;99.90;;;;;;4970253;28;20696;-72
2023/04/07 02:02:23;;;;;;;13.55;11.18;;;5.50;99.90;;;;;;4984802;28;20030;-72
2023/04/07 02:04:59;;;;;;;12.63;11.00;;;5.50;99.90;;;;;;4962153;28;20050;-72
2023/04/07 02:07:28;;;;;;;13.05;10.45;;;5.50;99.90;;;;;;4950355;28;20030;-71
2023/04/07 02:09:57;;;;;;;12.45;10.27;;;5.60;99.90;;;;;;4962007;28;20034;-72
2023/04/07 02:12:26;;;;;;;12.32;10.50;;;5.60;99.90;;;;;;4961708;28;20046;-72
2023/04/07 02:14:53;;;;;;;13.48;10.35;;;5.50;99.90;;;;;;4970455;28;20590;-72
2023/04/07 02:17:20;;;;;;;11.88;10.13;;;5.50;99.90;;;;;;4986025;28;20065;-72
2023/04/07 02:19:47;;;;;;;11.38;10.02;;;5.50;99.90;;;;;;4968058;28;20034;-72
2023/04/07 02:22:15;;;;;;;13.38;10.32;;;5.40;99.90;;;;;;4969302;28;20045;-72
2023/04/07 02:24:44;;;;;;;12.57;10.35;;;5.30;99.90;;;;;;4966373;28;20349;-71
2023/04/07 02:27:10;;;;;;;14.88;10.45;;;5.30;99.90;;;;;;4967041;28;20031;-72
2023/04/07 02:29:35;;;;;;;11.20;9.98;;;5.30;99.90;;;;;;4961849;28;20046;-72
2023/04/07 02:32:01;;;;;;;12.88;11.15;;;5.30;99.90;;;;;;4965537;28;20622;-71
2023/04/07 02:34:27;;;;;;;11.95;9.70;;;5.40;99.90;;;;;;4969540;28;20632;-71
2023/04/07 02:36:52;;;;;;;12.40;9.82;;;5.40;99.90;;;;;;4965595;28;20042;-72
2023/04/07 02:39:18;;;;;;;11.88;9.05;;;5.40;99.90;;;;;;4969091;28;20036;-72
2023/04/07 02:41:44;;;;;;;12.23;9.85;;;5.40;99.90;;;;;;4966860;28;20121;-71
2023/04/07 02:44:09;;;;;;;14.60;11.20;;;5.40;99.90;;;;;;4947362;28;20045;-71
2023/04/07 02:46:35;;;;;;;14.85;11.52;;;5.30;99.90;;;;;;4965389;28;20431;-72
2023/04/07 02:49:01;;;;;;;27.92;18.17;;;5.20;99.90;;;;;;4964533;28;20261;-71
2023/04/07 02:51:26;;;;;;;20.23;14.65;;;5.30;99.90;;;;;;4951307;28;20047;-71
2023/04/07 02:53:52;;;;;;;16.02;11.70;;;5.30;99.90;;;;;;4961973;28;20050;-72
2023/04/07 02:56:17;;;;;;;13.30;9.65;;;5.40;99.90;;;;;;4967176;28;20152;-72
2023/04/07 02:58:43;;;;;;;13.05;10.20;;;5.40;99.90;;;;;;4964742;28;20121;-72
2023/04/07 03:01:09;;;;;;;16.73;12.25;;;5.30;99.90;;;;;;4968444;28;20601;-72
2023/04/07 03:03:34;;;;;;;30.42;17.95;;;5.30;99.90;;;;;;4965601;28;20056;-71
2023/04/07 03:06:00;;;;;;;36.60;21.50;;;5.30;99.90;;;;;;4964173;28;20046;-72
2023/04/07 03:08:26;;;;;;;28.50;19.42;;;5.30;99.90;;;;;;4965566;28;20045;-72
2023/04/07 03:10:52;;;;;;;23.70;16.73;;;5.40;99.90;;;;;;4969852;28;20053;-72
2023/04/07 03:13:18;;;;;;;18.08;14.07;;;5.40;99.90;;;;;;4963976;28;20086;-72
2023/04/07 03:15:44;;;;;;;15.68;11.48;;;5.50;99.90;;;;;;4966229;28;20038;-71
2023/04/07 03:18:10;;;;;;;12.90;9.98;;;5.50;99.90;;;;;;4967500;28;20089;-72
2023/04/07 03:20:36;;;;;;;12.43;9.70;;;5.50;99.90;;;;;;4968069;28;20061;-71
2023/04/07 03:23:02;;;;;;;10.75;9.25;;;5.50;99.90;;;;;;4960845;28;20101;-71
2023/04/07 03:25:28;;;;;;;10.40;9.00;;;5.50;99.90;;;;;;4966152;28;20083;-72
2023/04/07 03:27:53;;;;;;;10.70;9.60;;;5.50;99.90;;;;;;4966751;28;20502;-72
2023/04/07 03:30:19;;;;;;;12.68;10.65;;;5.50;99.90;;;;;;4966999;28;20252;-72
2023/04/07 03:32:45;;;;;;;14.40;10.68;;;5.60;99.90;;;;;;4964736;28;21614;-72
2023/04/07 03:35:10;;;;;;;14.02;10.73;;;5.60;99.90;;;;;;4965855;28;20049;-72
2023/04/07 03:37:36;;;;;;;15.38;10.15;;;5.60;99.90;;;;;;4966618;28;20035;-72
2023/04/07 03:40:02;;;;;;;20.77;14.40;;;5.60;99.90;;;;;;4964922;28;20042;-72
2023/04/07 03:42:28;;;;;;;23.80;14.80;;;5.60;99.90;;;;;;4967232;28;20034;-72
2023/04/07 03:44:53;;;;;;;13.80;10.93;;;5.50;99.90;;;;;;4965377;28;20035;-72
2023/04/07 03:47:19;;;;;;;13.68;10.27;;;5.50;99.90;;;;;;4969144;28;20528;-72
2023/04/07 03:49:45;;;;;;;10.77;9.65;;;5.50;99.90;;;;;;4966904;28;20130;-72
2023/04/07 03:52:10;;;;;;;12.90;10.02;;;5.50;99.90;;;;;;4967057;28;20427;-72
2023/04/07 03:54:36;;;;;;;13.10;10.07;;;5.40;99.90;;;;;;4966689;28;20042;-72
2023/04/07 03:57:02;;;;;;;13.05;11.50;;;5.40;99.90;;;;;;4963306;28;20128;-71
2023/04/07 03:59:27;;;;;;;11.77;10.35;;;5.40;99.90;;;;;;4965407;28;20043;-72
2023/04/07 04:01:53;;;;;;;12.48;10.57;;;5.30;99.90;;;;;;4967661;28;20039;-72
2023/04/07 04:04:19;;;;;;;11.48;10.02;;;5.30;99.90;;;;;;4968350;28;20121;-72
2023/04/07 04:06:44;;;;;;;13.30;9.82;;;5.30;99.90;;;;;;4965467;28;20427;-65
2023/04/07 04:09:10;;;;;;;11.13;9.60;;;5.30;99.90;;;;;;4951601;28;20090;-65
2023/04/07 04:11:36;;;;;;;13.50;10.02;;;5.40;99.90;;;;;;4960943;28;20156;-65
2023/04/07 04:14:01;;;;;;;10.65;8.57;;;5.40;99.90;;;;;;4967731;28;20078;-65
2023/04/07 04:16:27;;;;;;;13.55;10.20;;;5.50;99.90;;;;;;4971838;28;20634;-65
2023/04/07 04:18:53;;;;;;;11.05;9.52;;;5.60;99.90;;;;;;4966790;28;20033;-65
2023/04/07 04:21:19;;;;;;;11.82;9.45;;;5.60;99.90;;;;;;4969235;28;20868;-65
2023/04/07 04:23:44;;;;;;;10.48;8.95;;;5.60;99.90;;;;;;4972788;28;20057;-65
2023/04/07 04:26:10;;;;;;;10.93;8.45;;;5.70;99.90;;;;;;4968639;28;20483;-65
2023/04/07 04:28:35;;;;;;;10.30;8.43;;;5.70;99.90;;;;;;4967979;28;20053;-65
2023/04/07 04:31:01;;;;;;;10.80;9.07;;;5.80;99.90;;;;;;4969326;28;20033;-65
2023/04/07 04:33:27;;;;;;;11.30;9.25;;;5.70;99.90;;;;;;4973490;28;20054;-66
2023/04/07 04:35:52;;;;;;;9.77;8.65;;;5.70;99.90;;;;;;4968619;28;20035;-65
2023/04/07 04:38:18;;;;;;;11.20;9.07;;;5.70;99.90;;;;;;4969593;28;20054;-65
2023/04/07 04:40:44;;;;;;;12.15;9.32;;;5.60;99.90;;;;;;4970477;28;20686;-65
2023/04/07 04:43:10;;;;;;;10.90;9.73;;;5.70;99.90;;;;;;4968290;28;20403;-64
2023/04/07 04:45:35;;;;;;;12.07;9.55;;;5.60;99.90;;;;;;4967535;28;20050;-65
2023/04/07 04:48:01;;;;;;;12.85;10.45;;;5.70;99.90;;;;;;4970274;28;20048;-65
2023/04/07 04:50:27;;;;;;;12.10;9.70;;;5.60;99.90;;;;;;4970888;28;20038;-65
2023/04/07 04:52:52;;;;;;;12.20;9.85;;;5.60;99.90;;;;;;4970428;28;20043;-65
2023/04/07 04:55:18;;;;;;;12.90;9.60;;;5.60;99.90;;;;;;4969374;28;20050;-65
2023/04/07 04:57:44;;;;;;;14.07;11.02;;;5.60;99.90;;;;;;4967905;28;20105;-65
2023/04/07 05:00:10;;;;;;;12.18;10.82;;;5.60;99.90;;;;;;4960638;28;20051;-65
2023/04/07 05:02:36;;;;;;;11.75;10.43;;;5.60;99.90;;;;;;4963675;28;20040;-65
2023/04/07 05:05:01;;;;;;;20.83;16.08;;;5.70;99.90;;;;;;4969355;28;20038;-72
2023/04/07 05:07:27;;;;;;;23.38;16.75;;;5.70;99.90;;;;;;4963174;28;20030;-72
2023/04/07 05:09:53;;;;;;;18.67;15.15;;;5.70;99.90;;;;;;4967881;28;20053;-72
2023/04/07 05:12:18;;;;;;;19.52;14.93;;;5.70;99.90;;;;;;4969064;28;20039;-73
2023/04/07 05:14:44;;;;;;;18.55;14.60;;;5.70;99.90;;;;;;4967382;28;20998;-72
2023/04/07 05:17:10;;;;;;;21.70;17.30;;;5.70;99.90;;;;;;4968823;28;20053;-72
2023/04/07 05:19:35;;;;;;;16.73;14.15;;;5.70;99.90;;;;;;4967971;28;20053;-71
2023/04/07 05:22:01;;;;;;;18.05;14.57;;;5.70;99.90;;;;;;4967492;28;20041;-72
2023/04/07 05:24:28;;;;;;;14.73;11.98;;;5.70;99.90;;;;;;4958819;28;20400;-72
2023/04/07 05:26:55;;;;;;;15.38;12.57;;;5.80;99.90;;;;;;4978990;28;20052;-71
2023/04/07 05:29:21;;;;;;;13.80;11.23;;;5.80;99.90;;;;;;4966686;28;20515;-72
2023/04/07 05:31:46;;;;;;;17.70;12.80;;;5.80;99.90;;;;;;4969292;28;20050;-72
2023/04/07 05:34:12;;;;;;;15.80;12.32;;;5.70;99.90;;;;;;4967776;28;20109;-72
2023/04/07 05:36:37;;;;;;;15.32;12.27;;;5.70;99.90;;;;;;4966204;28;20050;-72
2023/04/07 05:39:03;;;;;;;16.25;12.15;;;5.70;99.90;;;;;;4962070;28;20042;-72
2023/04/07 05:41:29;;;;;;;12.18;10.82;;;5.80;99.90;;;;;;4967849;28;20041;-72
2023/04/07 05:43:54;;;;;;;14.65;11.45;;;5.80;99.90;;;;;;4969250;28;20394;-72
2023/04/07 05:46:20;;;;;;;19.25;13.50;;;5.80;99.90;;;;;;4970686;28;20487;-72
2023/04/07 05:48:46;;;;;;;14.07;11.05;;;5.80;99.90;;;;;;4967718;28;20712;-72
2023/04/07 05:51:11;;;;;;;15.60;10.70;;;5.80;99.90;;;;;;4966608;28;20034;-72
2023/04/07 05:53:38;;;;;;;11.90;10.38;;;5.90;99.90;;;;;;4965926;28;20058;-72
2023/04/07 05:56:03;;;;;;;14.07;10.60;;;5.80;99.90;;;;;;4967689;28;20034;-71
2023/04/07 05:58:29;;;;;;;11.95;10.30;;;5.90;99.90;;;;;;4966435;28;20048;-72
2023/04/07 06:00:55;;;;;;;11.23;9.35;;;5.80;99.90;;;;;;4966931;28;20045;-72
2023/04/07 06:03:20;;;;;;;14.32;10.60;;;5.80;99.90;;;;;;4964352;28;20089;-71
2023/04/07 06:05:46;;;;;;;14.43;10.70;;;5.80;99.90;;;;;;4968844;28;20038;-72
2023/04/07 06:08:12;;;;;;;12.30;11.00;;;5.80;99.90;;;;;;4967692;28;20067;-72
2023/04/07 06:10:40;;;;;;;15.13;11.65;;;5.90;99.90;;;;;;4968842;28;20434;-72
2023/04/07 06:13:05;;;;;;;13.93;10.95;;;5.80;99.90;;;;;;4964815;28;21138;-72
2023/04/07 06:15:31;;;;;;;12.02;10.73;;;5.80;99.90;;;;;;4969095;28;20073;-72
2023/04/07 06:17:57;;;;;;;13.07;10.57;;;5.80;99.90;;;;;;4968124;28;20071;-72
2023/04/07 06:20:23;;;;;;;15.18;11.98;;;5.90;99.90;;;;;;4966335;28;20671;-65
2023/04/07 06:22:49;;;;;;;13.10;11.07;;;5.90;99.90;;;;;;4962903;28;20039;-65
2023/04/07 06:25:14;;;;;;;13.73;12.18;;;6.00;99.90;;;;;;4962253;28;20054;-65
2023/04/07 06:27:40;;;;;;;12.25;10.95;;;5.90;99.90;;;;;;4966654;28;20050;-65
2023/04/07 06:30:07;;;;;;;13.90;11.02;;;5.90;99.90;;;;;;4965719;28;20037;-65
2023/04/07 06:32:32;;;;;;;14.18;10.82;;;5.80;99.90;;;;;;4959234;28;20038;-65
2023/04/07 06:34:58;;;;;;;12.05;9.60;;;5.90;99.90;;;;;;4957983;28;20050;-66
2023/04/07 06:37:24;;;;;;;12.52;10.45;;;5.90;99.90;;;;;;4970236;28;20785;-67
2023/04/07 06:39:50;;;;;;;12.27;10.32;;;5.90;99.90;;;;;;4967854;28;20042;-66
2023/04/07 06:42:16;;;;;;;13.50;11.07;;;5.90;99.90;;;;;;4956112;28;20049;-66
2023/04/07 06:44:42;;;;;;;13.05;10.32;;;5.90;99.90;;;;;;4969034;28;20039;-65
2023/04/07 06:47:08;;;;;;;13.05;10.65;;;6.00;99.90;;;;;;4968798;28;20022;-65
2023/04/07 06:49:34;;;;;;;11.55;10.35;;;6.00;99.90;;;;;;4960405;28;20046;-65
2023/04/07 06:51:59;;;;;;;11.45;10.25;;;6.00;99.90;;;;;;4964110;28;20042;-65
2023/04/07 06:54:25;;;;;;;11.80;10.30;;;6.00;99.90;;;;;;4960019;28;20050;-66
2023/04/07 06:56:50;;;;;;;12.52;10.23;;;6.10;99.90;;;;;;4972484;28;20181;-64
2023/04/07 06:59:16;;;;;;;11.98;10.30;;;6.10;99.90;;;;;;4969282;28;20479;-64
2023/04/07 07:01:42;;;;;;;11.70;9.73;;;6.20;99.90;;;;;;4974004;28;20035;-64
2023/04/07 07:04:08;;;;;;;11.52;9.65;;;6.20;99.90;;;;;;4973534;28;20061;-64
2023/04/07 07:06:34;;;;;;;13.02;10.10;;;6.20;99.90;;;;;;4974244;28;20129;-64
2023/04/07 07:09:01;;;;;;;11.88;10.00;;;6.10;99.90;;;;;;4957667;28;20046;-65
2023/04/07 07:11:27;;;;;;;11.57;9.82;;;6.20;99.90;;;;;;4958585;28;20124;-64
2023/04/07 07:13:53;;;;;;;11.50;9.70;;;6.30;99.90;;;;;;4955107;28;20046;-64
2023/04/07 07:16:19;;;;;;;11.68;9.65;;;6.40;99.90;;;;;;4961491;28;20136;-64
2023/04/07 07:18:45;;;;;;;11.18;9.43;;;6.40;99.90;;;;;;4969382;28;20768;-64
2023/04/07 07:21:10;;;;;;;15.55;9.82;;;6.40;99.90;;;;;;4974044;28;20121;-65
2023/04/07 07:23:36;;;;;;;13.82;10.65;;;6.40;99.90;;;;;;4971437;28;20519;-65
2023/04/07 07:26:02;;;;;;;11.98;10.23;;;6.50;99.90;;;;;;4967454;28;20124;-65
2023/04/07 07:28:28;;;;;;;15.18;13.55;;;6.50;99.90;;;;;;4962290;28;20050;-65
2023/04/07 07:30:54;;;;;;;12.60;10.93;;;6.50;99.90;;;;;;4959777;28;20037;-65
2023/04/07 07:33:21;;;;;;;12.85;10.38;;;6.50;99.90;;;;;;4967347;28;20042;-65
2023/04/07 07:35:47;;;;;;;14.27;11.88;;;6.50;99.90;;;;;;4967444;28;20288;-65
2023/04/07 07:38:13;;;;;;;20.05;11.43;;;6.60;99.90;;;;;;4968254;28;20511;-65
2023/04/07 07:40:38;;;;;;;11.43;8.43;;;6.70;99.90;;;;;;4970435;28;20050;-65
2023/04/07 07:43:05;;;;;;;13.05;9.57;;;6.70;99.90;;;;;;4964353;28;20079;-65
2023/04/07 07:45:30;;;;;;;14.20;11.32;;;6.80;99.90;;;;;;4968611;28;20541;-65
2023/04/07 07:47:56;;;;;;;17.60;11.15;;;6.80;99.90;;;;;;4972158;28;20030;-66
2023/04/07 07:50:22;;;;;;;15.70;11.77;;;6.80;99.90;;;;;;4978716;28;20041;-65
2023/04/07 07:52:47;;;;;;;14.07;11.15;;;6.90;99.90;;;;;;4972892;28;20466;-66
2023/04/07 07:55:13;;;;;;;13.80;11.13;;;6.90;99.90;;;;;;4979038;28;20034;-66
2023/04/07 07:57:39;;;;;;;13.35;10.10;;;7.00;99.90;;;;;;4979217;28;20038;-66
2023/04/07 08:00:05;;;;;;;12.85;10.40;;;7.00;99.90;;;;;;4972067;28;20038;-75
2023/04/07 08:02:32;;;;;;;44.50;12.77;;;7.00;99.90;;;;;;4957378;28;20042;-77
2023/04/07 08:04:58;;;;;;;38.25;9.98;;;7.00;99.90;;;;;;4955266;28;20046;-63
2023/04/07 08:07:26;;;;;;;81.15;11.68;;;7.00;99.90;;;;;;4961143;28;20041;-69
2023/04/07 08:09:52;;;;;;;333.88;25.20;;;7.10;99.90;;;;;;4966194;28;20698;-68
2023/04/07 08:12:18;;;;;;;348.67;25.50;;;7.20;99.90;;;;;;4966653;28;20626;-63
2023/04/07 08:14:43;;;;;;;21.13;9.27;;;7.30;99.90;;;;;;4963262;28;20046;-64
2023/04/07 08:17:09;;;;;;;61.70;13.05;;;7.20;99.90;;;;;;4960607;28;21317;-62
2023/04/07 08:19:35;;;;;;;18.52;10.00;;;7.10;99.90;;;;;;4975893;28;20027;-65
2023/04/07 08:22:01;;;;;;;97.85;14.32;;;6.80;99.90;;;;;;4970012;28;20030;-62
2023/04/07 08:24:27;;;;;;;150.57;20.75;;;6.90;99.90;;;;;;4964518;28;20038;-63
2023/04/07 08:26:53;;;;;;;21.52;11.65;;;6.90;99.90;;;;;;4978813;28;20113;-64
2023/04/07 08:29:19;;;;;;;44.80;12.35;;;7.10;99.90;;;;;;4978045;28;20096;-67
2023/04/07 08:31:44;;;;;;;37.28;11.63;;;7.30;99.90;;;;;;4974488;28;20057;-67
2023/04/07 08:34:10;;;;;;;12.77;10.85;;;7.40;99.90;;;;;;4975460;28;20101;-66
2023/04/07 08:36:36;;;;;;;14.82;11.82;;;7.30;99.90;;;;;;4980639;28;20051;-67
2023/04/07 08:39:04;;;;;;;18.42;12.93;;;7.20;99.90;;;;;;4969629;28;20046;-66
2023/04/07 08:41:36;;;;;;;24.98;14.50;;;7.20;99.90;;;;;;4967614;28;20089;-67
2023/04/07 08:44:02;;;;;;;16.23;11.77;;;7.20;99.90;;;;;;4976911;28;20049;-67
2023/04/07 08:46:29;;;;;;;13.90;11.35;;;7.20;99.90;;;;;;4971559;28;20163;-67
2023/04/07 08:48:56;;;;;;;38.83;11.93;;;7.20;99.90;;;;;;4958880;28;21981;-67
2023/04/07 08:51:28;;;;;;;13.30;10.77;;;7.20;99.90;;;;;;4953981;28;20062;-66
2023/04/07 08:54:01;;;;;;;10.77;9.68;;;7.10;99.90;;;;;;4969328;28;20045;-65
2023/04/07 08:56:27;;;;;;;19.98;11.10;;;7.10;99.90;;;;;;4977770;28;20025;-65
2023/04/07 08:58:54;;;;;;;12.52;11.18;;;7.20;99.90;;;;;;4972391;28;20407;-65
2023/04/07 09:01:21;;;;;;;29.30;17.53;;;7.20;99.90;;;;;;4974068;28;20022;-65
2023/04/07 09:03:48;;;;;;;14.73;11.90;;;7.20;99.90;;;;;;4970220;28;20137;-65
2023/04/07 09:06:14;;;;;;;23.27;13.57;;;7.30;99.90;;;;;;4976118;28;20037;-66
2023/04/07 09:08:40;;;;;;;21.40;12.93;;;7.30;99.90;;;;;;4973533;28;20034;-65
2023/04/07 09:11:06;;;;;;;18.70;13.60;;;7.40;99.90;;;;;;4972026;28;20372;-64
2023/04/07 09:13:32;;;;;;;19.33;12.45;;;7.40;99.90;;;;;;4970647;28;20106;-65
2023/04/07 09:16:00;;;;;;;14.85;13.02;;;7.40;99.90;;;;;;4970370;28;20038;-63
2023/04/07 09:18:27;;;;;;;38.60;20.25;;;7.50;99.90;;;;;;4977568;28;20034;-64
2023/04/07 09:20:57;;;;;;;14.85;13.25;;;7.50;99.90;;;;;;4973815;28;20041;-65
2023/04/07 09:23:34;;;;;;;21.02;12.15;;;7.50;99.90;;;;;;4966145;28;20030;-63
2023/04/07 09:26:17;;;;;;;14.20;11.75;;;7.50;99.90;;;;;;4972825;28;20034;-63
2023/04/07 09:28:45;;;;;;;15.73;11.88;;;7.50;99.90;;;;;;4970797;28;20120;-62
2023/04/07 09:31:11;;;;;;;17.52;12.40;;;7.40;99.90;;;;;;4963996;28;21791;-62
2023/04/07 09:33:37;;;;;;;25.25;14.43;;;7.40;99.90;;;;;;4988800;28;20100;-62
2023/04/07 09:36:05;;;;;;;15.35;12.05;;;7.40;99.90;;;;;;4977190;28;20034;-61
2023/04/07 09:38:34;;;;;;;15.00;13.40;;;7.40;99.90;;;;;;4974468;28;20557;-62
2023/04/07 09:41:11;;;;;;;16.33;13.85;;;7.40;99.90;;;;;;4974517;28;20487;-62
2023/04/07 09:43:39;;;;;;;16.80;13.85;;;7.40;99.90;;;;;;4968495;28;20145;-62
2023/04/07 09:46:12;;;;;;;16.75;14.38;;;7.40;99.90;;;;;;4975795;28;20508;-63
2023/04/07 09:48:38;;;;;;;33.58;14.95;;;7.50;99.90;;;;;;4988679;28;20502;-62
2023/04/07 09:51:10;;;;;;;61.60;16.63;;;7.50;99.90;;;;;;4976108;28;20022;-64
2023/04/07 09:53:47;;;;;;;28.08;15.80;;;7.60;99.90;;;;;;4957917;28;20070;-62
2023/04/07 09:56:18;;;;;;;55.35;16.00;;;7.50;99.90;;;;;;4973110;28;20138;-62
2023/04/07 09:58:50;;;;;;;18.35;13.73;;;7.50;99.90;;;;;;4966310;28;20657;-64
2023/04/07 10:01:16;;;;;;;23.05;14.02;;;7.60;99.90;;;;;;4990734;28;20034;-64
2023/04/07 10:03:45;;;;;;;21.73;13.15;;;7.70;99.90;;;;;;4972025;28;20047;-63
2023/04/07 10:06:10;;;;;;;23.25;13.80;;;7.60;99.90;;;;;;4960219;28;20849;-63
2023/04/07 10:08:39;;;;;;;17.25;14.63;;;7.50;99.90;;;;;;4970997;28;20030;-72
2023/04/07 10:11:05;;;;;;;16.42;13.15;;;7.40;99.90;;;;;;4977608;28;20153;-72
2023/04/07 10:13:32;;;;;;;16.30;13.75;;;7.40;99.90;;;;;;4966404;28;20467;-70
2023/04/07 10:15:59;;;;;;;15.68;14.07;;;7.40;99.90;;;;;;4967790;28;20101;-69
2023/04/07 10:18:32;;;;;;;40.47;16.05;;;7.30;99.90;;;;;;4959723;28;20200;-70
2023/04/07 10:21:03;;;;;;;21.33;15.90;;;7.30;99.90;;;;;;4948234;28;20050;-72
2023/04/07 10:23:58;;;;;;;17.05;15.10;;;7.20;99.90;;;;;;4954314;28;21510;-73
2023/04/07 10:26:29;;;;;;;16.60;14.23;;;7.30;99.90;;;;;;4960573;28;20046;-72
2023/04/07 10:28:59;;;;;;;18.10;15.50;;;7.40;99.90;;;;;;4953942;28;20059;-72
2023/04/07 10:31:25;;;;;;;17.33;14.73;;;7.50;99.90;;;;;;4968552;28;20577;-72
2023/04/07 10:33:55;;;;;;;13.95;11.98;;;7.60;99.90;;;;;;4974939;28;20524;-71
2023/04/07 10:36:21;;;;;;;12.85;11.07;;;7.60;99.90;;;;;;4971009;28;21078;-70
2023/04/07 10:39:05;;;;;;;12.13;10.82;;;7.40;99.90;;;;;;4969082;28;20046;-73
2023/04/07 10:41:32;;;;;;;12.82;11.52;;;7.30;99.90;;;;;;4958305;28;20640;-70
2023/04/07 10:43:58;;;;;;;13.02;11.63;;;7.20;99.90;;;;;;4968777;28;20034;-72
2023/04/07 10:46:23;;;;;;;15.38;12.57;;;7.30;99.90;;;;;;4972172;28;20793;-71
2023/04/07 10:49:09;;;;;;;15.48;12.50;;;7.30;99.90;;;;;;4960622;28;20054;-74
2023/04/07 10:51:38;;;;;;;14.25;12.18;;;7.30;99.90;;;;;;4967568;28;20045;-76
2023/04/07 10:54:15;;;;;;;30.65;27.40;;;7.40;99.90;;;;;;4971924;28;20090;-72
2023/04/07 10:57:04;;;;;;;39.80;30.60;;;7.50;99.90;;;;;;4972045;28;20051;-73
2023/04/07 10:59:31;;;;;;;22.80;19.15;;;7.70;99.90;;;;;;4956582;28;20049;-73
2023/04/07 11:02:28;;;;;;;13.93;12.43;;;7.60;99.90;;;;;;4964317;28;20117;-71
2023/04/07 11:04:54;;;;;;;15.68;13.98;;;7.50;99.90;;;;;;4957801;28;20711;-71
2023/04/07 11:07:43;;;;;;;17.48;15.57;;;7.40;99.90;;;;;;4950705;28;20069;-72
2023/04/07 11:10:11;;;;;;;15.20;13.25;;;7.30;99.90;;;;;;4973054;28;20042;-72
2023/04/07 11:12:37;;;;;;;32.13;26.38;;;7.20;99.90;;;;;;4972061;28;20820;-72
2023/04/07 11:15:22;;;;;;;16.55;14.30;;;7.20;99.90;;;;;;4956966;28;20057;-73
2023/04/07 11:18:15;;;;;;;15.43;13.43;;;7.30;99.90;;;;;;4936179;28;20713;-73
2023/04/07 11:20:52;;;;;;;19.10;15.88;;;7.50;99.90;;;;;;4962029;28;20415;-71
2023/04/07 11:23:20;;;;;;;20.73;18.08;;;7.60;99.90;;;;;;4975588;28;20069;-72
2023/04/07 11:25:48;;;;;;;41.67;37.10;;;7.60;99.90;;;;;;4976618;28;20054;-71
2023/04/07 11:28:14;;;;;;;16.40;14.63;;;7.60;99.90;;;;;;4977012;28;20045;-72
2023/04/07 11:30:51;;;;;;;20.80;18.23;;;7.70;99.90;;;;;;4974456;28;20490;-72
2023/04/07 11:33:22;;;;;;;37.42;31.23;;;7.80;99.90;;;;;;4972043;28;20042;-72
2023/04/07 11:35:48;;;;;;;48.90;40.33;;;7.70;99.90;;;;;;4969487;28;20042;-71
2023/04/07 11:38:15;;;;;;;24.30;21.70;;;7.50;99.90;;;;;;4974296;28;20030;-72
2023/04/07 11:40:41;;;;;;;19.05;15.95;;;7.40;99.90;;;;;;4969539;28;20042;-72
2023/04/07 11:43:40;;;;;;;17.33;13.50;;;7.50;99.90;;;;;;4975331;28;20073;-64
2023/04/07 11:46:14;;;;;;;23.20;12.77;;;7.70;99.90;;;;;;4953753;28;20030;-64
2023/04/07 11:48:42;;;;;;;15.25;13.52;;;7.70;99.90;;;;;;4959155;28;20047;-64
2023/04/07 11:51:22;;;;;;;18.50;15.75;;;7.60;99.90;;;;;;4973338;28;20533;-64
2023/04/07 11:53:54;;;;;;;17.42;15.65;;;7.50;99.90;;;;;;4971561;28;20034;-64
2023/04/07 11:56:21;;;;;;;17.20;14.70;;;7.60;99.90;;;;;;4974904;28;20042;-64
2023/04/07 11:58:51;;;;;;;16.90;12.85;;;7.70;99.90;;;;;;4977705;28;20030;-64
2023/04/07 12:01:17;;;;;;;14.38;12.98;;;7.80;99.90;;;;;;4975500;28;20085;-63
2023/04/07 12:03:58;;;;;;;14.93;12.48;;;8.00;99.90;;;;;;4966584;28;20037;-63
2023/04/07 12:06:34;;;;;;;13.30;11.75;;;8.00;99.90;;;;;;4962807;28;20046;-63
2023/04/07 12:09:01;;;;;;;14.27;11.45;;;7.80;99.90;;;;;;4983075;28;20407;-64
2023/04/07 12:11:27;;;;;;;15.07;11.63;;;7.80;99.90;;;;;;4969089;28;20026;-64
2023/04/07 12:13:53;;;;;;;15.18;13.40;;;7.80;99.90;;;;;;4965220;28;20800;-65
2023/04/07 12:16:23;;;;;;;12.60;11.25;;;7.90;99.90;;;;;;4966521;28;20031;-65
2023/04/07 12:18:50;;;;;;;12.85;10.85;;;7.90;99.90;;;;;;4961087;28;20488;-64
2023/04/07 12:21:19;;;;;;;13.80;11.95;;;7.80;99.90;;;;;;4968056;28;20036;-64
2023/04/07 12:23:46;;;;;;;13.50;12.10;;;7.70;99.90;;;;;;4966043;28;20039;-64
2023/04/07 12:26:12;;;;;;;13.88;12.38;;;7.90;99.90;;;;;;4958369;28;20169;-64
2023/04/07 12:28:38;;;;;;;14.77;11.82;;;8.10;99.90;;;;;;4969348;28;20026;-64
2023/04/07 12:31:04;;;;;;;13.95;11.63;;;8.10;99.90;;;;;;4964294;28;20568;-64
2023/04/07 12:33:30;;;;;;;18.85;13.10;;;8.00;99.90;;;;;;4958526;28;20051;-64
2023/04/07 12:35:57;;;;;;;16.08;13.88;;;8.00;99.90;;;;;;4971015;28;20666;-65
2023/04/07 12:38:22;;;;;;;14.13;12.27;;;8.00;99.90;;;;;;4963389;28;20093;-65
2023/04/07 12:40:48;;;;;;;13.90;12.13;;;8.00;99.90;;;;;;4971260;28;20042;-65